createdAt,value
2019-02-14T00:01:55.387Z,85.50
2019-02-14T00:04:23.687Z,85.67
2019-02-14T00:06:51.995Z,85.67
2019-02-14T00:09:20.459Z,85.74
2019-02-14T00:11:48.773Z,85.59
2019-02-14T00:14:17.081Z,85.76
2019-02-14T00:16:45.404Z,85.99
2019-02-14T00:19:13.696Z,85.78
2019-02-14T00:21:42.009Z,85.72
2019-02-14T00:24:10.312Z,85.94
2019-02-14T00:26:38.631Z,85.99
2019-02-14T00:29:06.940Z,85.81
2019-02-14T00:31:35.274Z,86.00
2019-02-14T00:34:03.574Z,85.91
2019-02-14T00:36:31.895Z,85.84
2019-02-14T00:39:00.202Z,85.96
2019-02-14T00:41:28.516Z,86.20
2019-02-14T00:43:57.131Z,86.31
2019-02-14T00:46:25.712Z,86.02
2019-02-14T00:48:54.291Z,86.00
2019-02-14T00:51:22.890Z,86.22
2019-02-14T00:53:51.186Z,86.38
2019-02-14T00:56:19.855Z,86.34
2019-02-14T00:58:48.171Z,86.15
2019-02-14T01:01:16.476Z,85.93
2019-02-14T01:03:44.795Z,86.10
2019-02-14T01:06:13.349Z,86.23
2019-02-14T01:08:41.671Z,86.09
2019-02-14T01:11:09.974Z,85.90
2019-02-14T01:13:38.292Z,86.10
2019-02-14T01:16:06.587Z,86.27
2019-02-14T01:18:34.904Z,86.35
2019-02-14T01:21:03.524Z,86.18
2019-02-14T01:23:31.839Z,86.04
2019-02-14T01:26:00.138Z,86.10
2019-02-14T01:28:28.778Z,86.13
2019-02-14T01:30:57.092Z,86.34
2019-02-14T01:33:25.410Z,86.53
2019-02-14T01:35:53.704Z,86.52
2019-02-14T01:38:22.040Z,86.25
2019-02-14T01:40:50.674Z,86.32
2019-02-14T01:43:19.055Z,86.46
2019-02-14T01:46:01.614Z,86.43
2019-02-14T01:48:29.935Z,86.14
2019-02-14T01:50:58.501Z,86.15
2019-02-14T01:53:26.830Z,86.28
2019-02-14T01:55:55.119Z,86.43
2019-02-14T01:58:23.413Z,86.49
2019-02-14T02:00:51.737Z,86.13
2019-02-14T02:03:20.039Z,86.04
2019-02-14T02:05:50.897Z,86.07
2019-02-14T02:08:19.245Z,86.17
2019-02-14T02:10:47.559Z,86.18
2019-02-14T02:13:15.857Z,86.32
2019-02-14T02:15:44.185Z,86.66
2019-02-14T02:18:12.489Z,86.69
2019-02-14T02:20:40.802Z,86.53
2019-02-14T02:23:09.096Z,86.28
2019-02-14T02:25:37.490Z,86.21
2019-02-14T02:28:05.778Z,86.28
2019-02-14T02:30:34.070Z,86.31
2019-02-14T02:33:02.400Z,86.26
2019-02-14T02:35:30.698Z,86.32
2019-02-14T02:37:59.016Z,86.51
2019-02-14T02:40:27.323Z,86.77
2019-02-14T02:42:55.641Z,86.81
2019-02-14T02:45:23.928Z,86.73
2019-02-14T02:47:52.253Z,86.44
2019-02-14T02:50:20.562Z,86.37
2019-02-14T02:52:48.903Z,86.44
2019-02-14T02:55:17.185Z,86.62
2019-02-14T02:57:45.491Z,86.57
2019-02-14T03:00:17.065Z,86.49
2019-02-14T03:02:45.384Z,86.59
2019-02-14T03:05:15.355Z,86.57
2019-02-14T03:07:43.638Z,86.64
2019-02-14T03:10:13.501Z,86.84
2019-02-14T03:12:41.791Z,87.01
2019-02-14T03:15:13.007Z,86.93
2019-02-14T03:17:41.366Z,86.74
2019-02-14T03:20:11.728Z,86.60
2019-02-14T03:22:40.027Z,86.67
2019-02-14T03:25:14.140Z,86.57
2019-02-14T03:27:42.796Z,86.61
2019-02-14T03:30:15.819Z,86.72
2019-02-14T03:32:44.454Z,86.58
2019-02-14T03:35:13.033Z,86.40
2019-02-14T03:37:41.623Z,86.47
2019-02-14T03:40:13.872Z,86.50
2019-02-14T03:42:42.830Z,86.38
2019-02-14T03:45:19.850Z,86.42
2019-02-14T03:47:48.173Z,86.40
2019-02-14T03:50:16.467Z,86.35
2019-02-14T03:52:45.114Z,86.38
2019-02-14T03:55:13.490Z,86.46
2019-02-14T03:57:41.813Z,86.63
2019-02-14T04:00:17.606Z,86.66
2019-02-14T04:02:45.922Z,86.65
2019-02-14T04:05:14.233Z,86.69
2019-02-14T04:07:42.865Z,86.73
2019-02-14T04:10:13.350Z,86.64
2019-02-14T04:12:41.689Z,86.52
2019-02-14T04:15:12.981Z,86.61
2019-02-14T04:17:41.286Z,86.61
2019-02-14T04:20:10.845Z,86.57
2019-02-14T04:22:39.148Z,86.66
2019-02-14T04:25:09.101Z,86.81
2019-02-14T04:27:37.401Z,86.88
2019-02-14T04:30:09.117Z,87.02
2019-02-14T04:32:37.443Z,86.93
2019-02-14T04:35:06.322Z,86.78
2019-02-14T04:37:34.959Z,86.84
2019-02-14T04:40:03.960Z,86.77
2019-02-14T04:42:32.264Z,86.79
2019-02-14T04:45:00.589Z,87.07
2019-02-14T04:47:28.904Z,87.18
2019-02-14T04:49:57.470Z,87.05
2019-02-14T04:52:26.059Z,87.04
2019-02-14T04:54:54.390Z,86.84
2019-02-14T04:57:23.057Z,86.89
2019-02-14T04:59:51.360Z,86.88
2019-02-14T05:02:19.652Z,86.84
2019-02-14T05:04:47.963Z,86.85
2019-02-14T05:07:16.269Z,86.83
2019-02-14T05:09:44.921Z,86.83
2019-02-14T05:12:13.233Z,87.01
2019-02-14T05:14:41.549Z,87.05
2019-02-14T05:17:10.143Z,87.15
2019-02-14T05:19:38.447Z,87.15
2019-02-14T05:22:06.766Z,87.14
2019-02-14T05:24:35.381Z,87.13
2019-02-14T05:27:03.698Z,87.08
2019-02-14T05:29:31.984Z,86.98
2019-02-14T05:32:00.282Z,86.92
2019-02-14T05:34:28.582Z,86.92
2019-02-14T05:36:56.882Z,86.98
2019-02-14T05:39:25.469Z,86.98
2019-02-14T05:41:53.743Z,86.92
2019-02-14T05:44:22.417Z,86.79
2019-02-14T05:46:50.720Z,86.63
2019-02-14T05:49:19.041Z,86.97
2019-02-14T05:51:47.355Z,87.21
2019-02-14T05:54:15.660Z,87.17
2019-02-14T05:56:43.960Z,87.06
2019-02-14T05:59:12.298Z,86.84
2019-02-14T06:01:40.590Z,86.87
2019-02-14T06:04:08.959Z,86.89
2019-02-14T06:06:37.256Z,87.06
2019-02-14T06:09:06.715Z,87.14
2019-02-14T06:11:35.303Z,87.28
2019-02-14T06:14:03.602Z,87.18
2019-02-14T06:16:31.920Z,87.02
2019-02-14T06:19:00.229Z,86.95
2019-02-14T06:21:28.560Z,86.76
2019-02-14T06:23:56.847Z,86.63
2019-02-14T06:26:25.193Z,86.65
2019-02-14T06:28:53.494Z,86.79
2019-02-14T06:31:21.824Z,86.85
2019-02-14T06:33:50.140Z,86.89
2019-02-14T06:36:18.476Z,86.94
2019-02-14T06:38:46.776Z,87.01
2019-02-14T06:41:15.085Z,86.99
2019-02-14T06:43:43.707Z,87.07
2019-02-14T06:46:12.031Z,87.11
2019-02-14T06:48:40.335Z,87.16
2019-02-14T06:51:08.718Z,87.23
2019-02-14T06:53:37.019Z,87.34
2019-02-14T06:56:05.358Z,87.24
2019-02-14T06:58:33.640Z,87.27
2019-02-14T07:01:02.262Z,87.20
2019-02-14T07:03:30.843Z,87.04
2019-02-14T07:05:59.154Z,87.19
2019-02-14T07:08:27.475Z,87.24
2019-02-14T07:10:57.616Z,87.18
2019-02-14T07:13:26.060Z,87.14
2019-02-14T07:15:54.369Z,87.24
2019-02-14T07:18:22.679Z,87.32
2019-02-14T07:20:51.335Z,87.20
2019-02-14T07:23:19.662Z,87.10
2019-02-14T07:25:47.963Z,86.80
2019-02-14T07:28:16.272Z,86.73
2019-02-14T07:30:44.573Z,86.71
2019-02-14T07:33:12.974Z,86.58
2019-02-14T07:35:41.522Z,86.64
2019-02-14T07:38:10.191Z,86.65
2019-02-14T07:40:38.735Z,86.60
2019-02-14T07:43:07.349Z,86.46
2019-02-14T07:45:35.676Z,86.56
2019-02-14T07:48:03.998Z,86.65
2019-02-14T07:50:32.589Z,86.55
2019-02-14T07:53:00.891Z,86.44
2019-02-14T07:55:29.202Z,86.33
2019-02-14T07:57:57.509Z,86.25
2019-02-14T08:00:25.837Z,86.07
2019-02-14T08:02:54.136Z,85.82
2019-02-14T08:05:22.450Z,85.78
2019-02-14T08:07:50.743Z,85.84
2019-02-14T08:10:19.858Z,85.91
2019-02-14T08:12:48.243Z,85.81
2019-02-14T08:15:16.552Z,85.59
2019-02-14T08:17:44.861Z,85.54
2019-02-14T08:20:18.024Z,85.34
2019-02-14T08:22:46.661Z,85.10
2019-02-14T08:25:14.960Z,84.69
2019-02-14T08:27:43.261Z,84.44
2019-02-14T08:30:19.334Z,84.34
2019-02-14T08:32:47.655Z,84.13
2019-02-14T08:35:16.215Z,84.11
2019-02-14T08:37:45.958Z,83.92
2019-02-14T08:40:29.660Z,83.65
2019-02-14T08:42:58.657Z,83.40
2019-02-14T08:45:27.538Z,83.28
2019-02-14T08:47:55.868Z,83.07
2019-02-14T08:50:24.168Z,82.92
2019-02-14T08:52:52.487Z,82.49
2019-02-14T08:55:20.780Z,82.24
2019-02-14T08:57:49.435Z,82.04
2019-02-14T09:00:18.249Z,81.94
2019-02-14T09:02:46.562Z,81.88
2019-02-14T09:05:17.887Z,81.35
2019-02-14T09:07:54.350Z,81.25
2019-02-14T09:10:17.173Z,81.00
2019-02-14T09:12:45.488Z,80.65
2019-02-14T09:15:14.734Z,80.06
2019-02-14T09:17:43.335Z,79.66
2019-02-14T09:20:17.163Z,78.64
2019-02-14T09:22:45.480Z,78.31
2019-02-14T09:25:14.086Z,77.96
2019-02-14T09:27:42.388Z,77.60
2019-02-14T09:30:12.325Z,77.58
2019-02-14T09:32:40.976Z,77.93
2019-02-14T09:35:10.488Z,77.87
2019-02-14T09:37:39.065Z,77.87
2019-02-14T09:40:12.859Z,77.95
2019-02-14T09:42:41.186Z,77.52
2019-02-14T09:45:12.036Z,77.25
2019-02-14T09:47:40.335Z,76.92
2019-02-14T09:50:10.971Z,76.87
2019-02-14T09:52:40.282Z,76.42
2019-02-14T09:55:10.817Z,76.33
2019-02-14T09:57:39.637Z,75.70
2019-02-14T10:00:18.842Z,75.42
2019-02-14T10:02:47.151Z,75.26
2019-02-14T10:05:16.132Z,75.54
2019-02-14T10:07:44.446Z,75.40
2019-02-14T10:10:18.393Z,75.06
2019-02-14T10:12:46.702Z,74.64
2019-02-14T10:15:15.021Z,74.52
2019-02-14T10:17:43.326Z,74.40
2019-02-14T10:20:14.616Z,73.93
2019-02-14T10:22:43.257Z,73.43
2019-02-14T10:25:12.420Z,71.67
2019-02-14T10:27:40.816Z,71.67
2019-02-14T10:30:17.835Z,71.49
2019-02-14T10:32:46.496Z,71.14
2019-02-14T10:35:14.805Z,70.54
2019-02-14T10:37:43.558Z,70.02
2019-02-14T10:40:16.228Z,69.37
2019-02-14T10:42:44.626Z,68.66
2019-02-14T10:45:17.600Z,67.94
2019-02-14T10:47:45.940Z,67.23
2019-02-14T10:50:14.565Z,66.24
2019-02-14T10:52:43.289Z,65.79
2019-02-14T10:55:13.595Z,65.04
2019-02-14T10:57:41.900Z,64.53
2019-02-14T11:00:24.308Z,64.11
2019-02-14T11:02:53.166Z,63.49
2019-02-14T11:05:21.448Z,62.29
2019-02-14T11:07:50.120Z,62.76
2019-02-14T11:10:18.405Z,62.08
2019-02-14T11:12:46.732Z,61.25
2019-02-14T11:15:24.166Z,60.76
2019-02-14T11:17:52.550Z,59.68
2019-02-14T11:20:20.853Z,58.86
2019-02-14T11:22:49.531Z,58.19
2019-02-14T11:25:26.375Z,57.53
2019-02-14T11:27:54.660Z,55.81
2019-02-14T11:30:22.970Z,54.74
2019-02-14T11:32:51.271Z,54.35
2019-02-14T11:35:19.579Z,53.60
2019-02-14T11:37:48.178Z,54.25
2019-02-14T11:40:16.608Z,54.50
2019-02-14T11:42:44.884Z,54.06
2019-02-14T11:45:18.674Z,53.93
2019-02-14T11:47:46.970Z,53.80
2019-02-14T11:50:15.265Z,53.57
2019-02-14T11:52:43.555Z,53.65
2019-02-14T11:55:12.243Z,53.20
2019-02-14T11:57:40.825Z,51.99
2019-02-14T12:00:13.974Z,51.88
2019-02-14T12:02:42.253Z,51.08
2019-02-14T12:05:10.539Z,50.75
2019-02-14T12:07:39.158Z,50.94
2019-02-14T12:10:13.361Z,50.79
2019-02-14T12:12:40.231Z,50.57
2019-02-14T12:15:11.427Z,50.47
2019-02-14T12:17:39.813Z,50.26
2019-02-14T12:20:12.875Z,49.74
2019-02-14T12:22:46.550Z,49.67
2019-02-14T12:25:19.914Z,49.86
2019-02-14T12:27:48.867Z,50.36
2019-02-14T12:30:17.241Z,50.25
2019-02-14T12:32:45.522Z,50.17
2019-02-14T12:35:13.843Z,50.15
2019-02-14T12:37:42.390Z,49.21
2019-02-14T12:40:14.621Z,48.98
2019-02-14T12:42:42.935Z,48.93
2019-02-14T12:47:44.305Z,48.83
2019-02-14T12:50:12.622Z,48.23
2019-02-14T12:52:40.914Z,47.83
2019-02-14T12:55:09.283Z,47.17
2019-02-14T12:57:37.583Z,47.06
2019-02-14T13:00:17.913Z,47.04
2019-02-14T13:02:46.208Z,46.88
2019-02-14T13:05:14.514Z,46.43
2019-02-14T13:07:42.823Z,45.80
2019-02-14T13:10:14.557Z,45.78
2019-02-14T13:12:43.039Z,44.98
2019-02-14T13:15:16.890Z,44.52
2019-02-14T13:17:45.215Z,44.52
2019-02-14T13:20:13.862Z,44.60
2019-02-14T13:22:42.180Z,44.36
2019-02-14T13:25:11.873Z,44.37
2019-02-14T13:27:40.538Z,44.46
2019-02-14T13:30:17.704Z,44.37
2019-02-14T13:32:46.065Z,44.16
2019-02-14T13:35:14.319Z,43.71
2019-02-14T13:37:42.634Z,43.41
2019-02-14T13:40:11.010Z,43.23
2019-02-14T13:42:39.598Z,43.24
2019-02-14T13:45:11.074Z,43.25
2019-02-14T13:47:39.392Z,43.03
2019-02-14T13:50:10.227Z,42.69
2019-02-14T13:52:38.538Z,42.75
2019-02-14T13:55:09.262Z,42.47
2019-02-14T13:57:37.544Z,42.30
2019-02-14T14:00:14.890Z,42.32
2019-02-14T14:02:43.191Z,42.53
2019-02-14T14:05:11.541Z,42.69
2019-02-14T14:07:40.704Z,42.76
2019-02-14T14:10:10.116Z,42.79
2019-02-14T14:12:38.397Z,42.59
2019-02-14T14:15:09.451Z,42.49
2019-02-14T14:17:37.766Z,42.20
2019-02-14T14:20:07.727Z,41.92
2019-02-14T14:22:36.064Z,41.77
2019-02-14T14:25:05.795Z,41.63
2019-02-14T14:27:34.115Z,41.35
2019-02-14T14:30:02.776Z,41.39
2019-02-14T14:32:31.107Z,41.25
2019-02-14T14:34:59.394Z,41.15
2019-02-14T14:37:27.701Z,41.03
2019-02-14T14:39:56.017Z,41.01
2019-02-14T14:42:34.852Z,40.65
2019-02-14T14:45:04.807Z,40.62
2019-02-14T14:47:33.394Z,40.46
2019-02-14T14:50:02.209Z,40.72
2019-02-14T14:52:30.517Z,40.63
2019-02-14T14:54:59.144Z,40.77
2019-02-14T14:57:27.480Z,40.92
2019-02-14T14:59:56.135Z,40.66
2019-02-14T15:02:24.611Z,40.22
2019-02-14T15:04:52.905Z,40.14
2019-02-14T15:07:21.547Z,40.21
2019-02-14T15:09:57.199Z,40.51
2019-02-14T15:12:19.895Z,40.38
2019-02-14T15:14:48.450Z,40.51
2019-02-14T15:17:16.753Z,40.58
2019-02-14T15:19:45.079Z,40.50
2019-02-14T15:22:13.371Z,40.54
2019-02-14T15:24:41.674Z,40.27
2019-02-14T15:27:09.963Z,40.52
2019-02-14T15:29:38.587Z,40.81
2019-02-14T15:32:07.169Z,40.92
2019-02-14T15:34:35.495Z,40.85
2019-02-14T15:37:03.794Z,40.80
2019-02-14T15:39:32.113Z,40.75
2019-02-14T15:42:00.419Z,40.88
2019-02-14T15:44:28.730Z,40.98
2019-02-14T15:46:57.034Z,41.22
2019-02-14T15:49:25.513Z,41.55
2019-02-14T15:51:53.831Z,41.72
2019-02-14T15:54:22.114Z,42.10
2019-02-14T15:56:51.417Z,42.10
2019-02-14T15:59:21.048Z,42.24
2019-02-14T16:01:49.864Z,42.56
2019-02-14T16:04:18.170Z,42.56
2019-02-14T16:06:46.492Z,42.05
2019-02-14T16:09:16.526Z,43.04
2019-02-14T16:11:44.925Z,43.24
2019-02-14T16:14:13.231Z,43.58
2019-02-14T16:16:43.285Z,44.61
2019-02-14T16:19:13.152Z,46.11
2019-02-14T16:21:41.470Z,48.12
2019-02-14T16:24:09.806Z,50.07
2019-02-14T16:26:38.895Z,50.80
2019-02-14T16:29:07.563Z,50.96
2019-02-14T16:31:36.491Z,50.43
2019-02-14T16:34:04.809Z,50.11
2019-02-14T16:36:33.412Z,50.04
2019-02-14T16:39:02.209Z,50.27
2019-02-14T16:41:30.497Z,50.49
2019-02-14T16:43:58.805Z,50.67
2019-02-14T16:46:27.107Z,51.05
2019-02-14T16:48:55.450Z,51.64
2019-02-14T16:51:23.986Z,52.04
2019-02-14T16:53:52.295Z,52.36
2019-02-14T16:56:20.590Z,52.49
2019-02-14T16:58:48.947Z,52.80
2019-02-14T17:01:17.357Z,53.17
2019-02-14T17:03:45.641Z,53.24
2019-02-14T17:06:13.967Z,53.36
2019-02-14T17:08:42.255Z,53.57
2019-02-14T17:11:10.581Z,53.96
2019-02-14T17:13:38.881Z,54.40
2019-02-14T17:16:07.186Z,54.83
2019-02-14T17:18:35.755Z,55.38
2019-02-14T17:21:04.554Z,55.86
2019-02-14T17:23:32.844Z,56.61
2019-02-14T17:26:01.160Z,57.49
2019-02-14T17:28:29.777Z,58.28
2019-02-14T17:30:58.354Z,58.73
2019-02-14T17:33:26.688Z,59.55
2019-02-14T17:35:55.425Z,59.87
2019-02-14T17:38:23.737Z,60.60
2019-02-14T17:40:52.028Z,61.23
2019-02-14T17:43:20.687Z,61.36
2019-02-14T17:45:48.985Z,61.79
2019-02-14T17:48:17.294Z,62.28
2019-02-14T17:50:45.579Z,62.51
2019-02-14T17:53:13.921Z,63.18
2019-02-14T17:55:42.215Z,63.46
2019-02-14T17:58:10.532Z,63.88
2019-02-14T18:00:40.702Z,64.18
2019-02-14T18:03:09.001Z,64.58
2019-02-14T18:05:37.624Z,64.93
2019-02-14T18:08:05.918Z,65.26
2019-02-14T18:10:34.245Z,65.47
2019-02-14T18:13:02.864Z,65.74
2019-02-14T18:15:31.178Z,65.96
2019-02-14T18:17:59.816Z,65.97
2019-02-14T18:20:28.122Z,66.01
2019-02-14T18:22:56.408Z,65.88
2019-02-14T18:25:25.061Z,66.13
2019-02-14T18:27:53.456Z,66.42
2019-02-14T18:30:21.763Z,66.78
2019-02-14T18:32:50.398Z,67.08
2019-02-14T18:35:18.680Z,67.37
2019-02-14T18:37:47.008Z,67.72
2019-02-14T18:40:15.372Z,68.08
2019-02-14T18:42:45.844Z,68.51
2019-02-14T18:45:15.577Z,68.80
2019-02-14T18:47:43.904Z,69.16
2019-02-14T18:50:13.274Z,69.58
2019-02-14T18:52:41.582Z,69.81
2019-02-14T18:55:11.041Z,70.14
2019-02-14T18:57:39.365Z,70.43
2019-02-14T19:00:16.153Z,70.56
2019-02-14T19:02:44.446Z,70.82
2019-02-14T19:05:13.134Z,71.02
2019-02-14T19:07:41.561Z,71.18
2019-02-14T19:10:12.888Z,71.24
2019-02-14T19:12:41.547Z,71.52
2019-02-14T19:15:11.710Z,71.62
2019-02-14T19:17:40.017Z,71.68
2019-02-14T19:20:12.418Z,71.93
2019-02-14T19:22:41.863Z,72.25
2019-02-14T19:25:10.356Z,72.53
2019-02-14T19:27:38.671Z,72.58
2019-02-14T19:30:11.935Z,72.42
2019-02-14T19:32:40.311Z,72.46
2019-02-14T19:35:09.396Z,72.34
2019-02-14T19:37:37.707Z,72.04
2019-02-14T19:40:08.047Z,71.80
2019-02-14T19:42:36.619Z,71.78
2019-02-14T19:45:10.198Z,71.72
2019-02-14T19:47:38.515Z,71.59
2019-02-14T19:50:09.471Z,71.36
2019-02-14T19:52:37.757Z,71.30
2019-02-14T19:55:08.509Z,71.50
2019-02-14T19:57:36.885Z,71.53
2019-02-14T20:00:08.359Z,71.59
2019-02-14T20:02:36.670Z,71.52
2019-02-14T20:05:06.210Z,71.45
2019-02-14T20:07:34.693Z,71.32
2019-02-14T20:10:03.353Z,71.30
2019-02-14T20:12:31.936Z,71.72
2019-02-14T20:15:00.435Z,71.72
2019-02-14T20:17:29.212Z,72.01
2019-02-14T20:19:57.657Z,72.43
2019-02-14T20:22:25.999Z,72.82
2019-02-14T20:24:55.815Z,73.15
2019-02-14T20:27:24.441Z,73.03
2019-02-14T20:29:52.770Z,73.18
2019-02-14T20:32:21.080Z,73.40
2019-02-14T20:34:49.651Z,73.63
2019-02-14T20:37:18.275Z,74.00
2019-02-14T20:39:46.578Z,74.22
2019-02-14T20:42:14.883Z,74.46
2019-02-14T20:44:43.193Z,74.43
2019-02-14T20:47:11.484Z,74.38
2019-02-14T20:49:39.807Z,74.62
2019-02-14T20:52:08.441Z,74.77
2019-02-14T20:54:37.133Z,74.88
2019-02-14T20:57:05.416Z,75.05
2019-02-14T20:59:33.982Z,75.35
2019-02-14T21:02:02.309Z,75.55
2019-02-14T21:04:30.621Z,75.36
2019-02-14T21:06:58.977Z,75.22
2019-02-14T21:09:27.292Z,75.15
2019-02-14T21:11:55.617Z,74.94
2019-02-14T21:14:24.250Z,75.14
2019-02-14T21:16:52.590Z,75.29
2019-02-14T21:19:20.884Z,75.23
2019-02-14T21:21:49.191Z,75.25
2019-02-14T21:24:17.508Z,75.27
2019-02-14T21:26:45.828Z,75.29
2019-02-14T21:29:14.451Z,75.24
2019-02-14T21:31:42.754Z,75.54
2019-02-14T21:34:11.030Z,75.87
2019-02-14T21:36:39.345Z,75.90
2019-02-14T21:39:07.659Z,75.91
2019-02-14T21:41:36.069Z,76.20
2019-02-14T21:44:04.441Z,76.37
2019-02-14T21:46:32.727Z,76.69
2019-02-14T21:49:01.099Z,76.96
2019-02-14T21:51:29.406Z,77.01
2019-02-14T21:53:57.725Z,76.93
2019-02-14T21:56:26.032Z,76.87
2019-02-14T21:58:54.346Z,76.88
2019-02-14T22:01:24.512Z,76.85
2019-02-14T22:03:52.830Z,77.04
2019-02-14T22:06:21.145Z,77.17
2019-02-14T22:08:49.485Z,77.20
2019-02-14T22:11:17.793Z,77.46
2019-02-14T22:13:46.128Z,77.63
2019-02-14T22:16:14.755Z,77.92
2019-02-14T22:18:43.327Z,77.80
2019-02-14T22:21:12.014Z,77.74
2019-02-14T22:23:40.612Z,77.80
2019-02-14T22:26:08.931Z,77.79
2019-02-14T22:28:37.231Z,77.82
2019-02-14T22:31:05.587Z,77.69
2019-02-14T22:33:34.206Z,77.84
2019-02-14T22:36:02.520Z,77.95
2019-02-14T22:38:30.822Z,78.06
2019-02-14T22:40:59.131Z,77.99
2019-02-14T22:43:27.441Z,77.83
2019-02-14T22:45:55.758Z,77.56
2019-02-14T22:48:24.061Z,77.65
2019-02-14T22:50:52.371Z,77.74
2019-02-14T22:53:20.927Z,77.81
2019-02-14T22:55:49.261Z,77.84
2019-02-14T22:58:17.558Z,77.75
2019-02-14T23:00:50.050Z,77.99
2019-02-14T23:03:18.353Z,78.19
2019-02-14T23:05:47.030Z,78.31
2019-02-14T23:08:15.331Z,77.99
2019-02-14T23:10:43.645Z,77.88
2019-02-14T23:13:11.965Z,78.08
2019-02-14T23:15:40.544Z,77.99
2019-02-14T23:18:08.857Z,78.02
2019-02-14T23:20:37.168Z,78.13
2019-02-14T23:23:05.479Z,78.20
2019-02-14T23:25:33.787Z,78.27
2019-02-14T23:28:02.089Z,78.34
2019-02-14T23:30:30.391Z,78.37
2019-02-14T23:32:58.994Z,78.37
2019-02-14T23:35:27.294Z,78.33
2019-02-14T23:37:55.607Z,78.12
2019-02-14T23:40:23.908Z,78.08
2019-02-14T23:42:52.220Z,78.31
2019-02-14T23:45:20.518Z,78.19
2019-02-14T23:47:48.810Z,78.01
2019-02-14T23:50:17.195Z,77.88
2019-02-14T23:52:45.498Z,77.82
2019-02-14T23:55:13.817Z,77.99
2019-02-14T23:57:42.470Z,78.05
